• Join FlightAware (Why Join?)
  • Login
  • US Flag 
Rudolph Flight #1: Arrived! 
11:32PM EST


 

Airport Tracker/Info


-or-


 

Live Flight TrackerFlight Track Log ✈ N43998 ✈ 24-May-2013 ✈ KEKY - KJKA

Flight Track Log - Related Links

Times and Time Zones

All times are in EDT time to prevent confusion due to time zone crossing. See the N43998 flight status page for this flight to view local times or setup timezone preferences in your user account.

Time Position Orientation Groundspeed Altitude Reporting Facility
EDT Latitude Longitude Course Direction KTS MPH feet Rate Location/Type
02:41PM 32.5617 -87.1294 193° South 144 166 4,500  Level Atlanta Center
02:42PM 32.5217 -87.1403 193° South 144 166 4,500 -60 Level Atlanta Center
02:43PM 32.4797 -87.1486 190° South 144 166 4,400 -60 Descending Atlanta Center
02:44PM 32.4419 -87.1619 197° South 144 166 4,400  Level Atlanta Center
02:45PM 32.3997 -87.1706 190° South 144 166 4,500  Climbing Atlanta Center
02:46PM 32.3619 -87.1814 194° South 144 166 4,500  Level Atlanta Center
02:47PM 32.3219 -87.1922 193° South 144 166 4,500 -60 Level Atlanta Center
02:48PM 32.2822 -87.2008 190° South 144 166 4,400  Descending Atlanta Center
02:49PM 32.2422 -87.2092 190° South 144 166 4,500  Climbing Atlanta Center
02:50PM 32.2003 -87.2222 195° South 144 166 4,400  Descending Atlanta Center
02:51PM 32.1625 -87.2283 188° South 144 166 4,500  Climbing Atlanta Center
02:52PM 32.1206 -87.2392 192° South 149 171 4,400 -60 Descending Atlanta Center
02:53PM 32.0806 -87.2500 193° South 149 171 4,400  Level Atlanta Center
02:54PM 32.0406 -87.2608 193° South 149 171 4,500  Climbing Atlanta Center
02:55PM 32.0008 -87.2717 193° South 149 171 4,400 -60 Descending Atlanta Center
02:56PM 31.9608 -87.2822 193° South 149 171 4,400  Level Atlanta Center
02:57PM 31.9228 -87.2956 197° South 149 171 4,500  Climbing Atlanta Center
02:58PM 31.8831 -87.3039 190° South 149 171 4,400  Descending Atlanta Center
02:59PM 31.8389 -87.3097 186° South 149 171 4,500  Climbing Atlanta Center
03:00PM 31.8011 -87.3206 194° South 149 171 4,400 -60 Descending Atlanta Center
03:01PM 31.7653 -87.3364 201° Southwest 149 171 4,400  Level Atlanta Center
03:02PM 31.7233 -87.3397 184° South 149 171 4,500  Climbing Atlanta Center
03:04PM 31.6472 -87.3619 194° South 149 171 4,500 -60 Level Houston Center
03:05PM 31.5994 -87.3708 189° South 146 168 4,400 -60 Descending Houston Center
03:06PM 31.5589 -87.3797 191° South 147 169 4,400  Level Houston Center
03:07PM 31.5186 -87.3892 191° South 147 169 4,400  Level Houston Center
03:08PM 31.4792 -87.3994 193° South 147 169 4,500  Climbing Houston Center
03:09PM 31.4400 -87.4100 193° South 146 168 4,500 60 Level Houston Center
03:10PM 31.4022 -87.4203 193° South 143 165 4,700 240 Climbing Houston Center
03:11PM 31.3561 -87.4311 191° South 141 162 5,100 240 Climbing Houston Center
03:12PM 31.3169 -87.4408 192° South 142 163 5,200 240 Climbing Houston Center
03:13PM 31.2789 -87.4503 192° South 141 162 5,600 360 Climbing Houston Center
03:14PM 31.2425 -87.4583 191° South 138 159 6,000 300 Climbing Houston Center
03:15PM 31.2050 -87.4647 188° South 136 157 6,300 240 Climbing Houston Center
03:16PM 31.1681 -87.4717 189° South 135 155 6,500 60 Climbing Houston Center
03:17PM 31.1208 -87.4831 192° South 139 160 6,500  Level Houston Center
03:19PM 31.0794 -87.4925 191° South 144 166 6,500  Level Houston Center
03:20PM 31.0381 -87.5033 193° South 148 170 6,500  Level Houston Center
03:21PM 30.9942 -87.5136 191° South 156 180 6,600  Climbing Houston Center
03:22PM 30.9511 -87.5258 194° South 159 183 6,600  Level Houston Center
03:23PM 30.9089 -87.5361 192° South 156 180 6,600 -60 Level Houston Center
03:24PM 30.8586 -87.5511 194° South 155 178 6,500 -120 Descending Houston Center